Flint, MI (48501)

9:20 PM EDT on April 30, 2017 (GMT -0400)
KC8EEL-FLINT | | Change Station

Elev 756 ft 42.99 °N, 83.69 °W | Updated 11 seconds ago

Overcast
Overcast
45.9 °F
Feels Like 46 °F
N
0.0
Wind Variable Wind from SW

Today
High -- | Low -- °F
--% Chance of Precip.
Yesterday
High -- | Low -- °F
Precip. -- in
Pressure 29.86 in
Visibility 5.0 miles
Clouds Overcast 300 ft
Windchill 46 °F
Dew Point 43 °F
Humidity 90%
Rainfall 0.65 in
Snow Depth Not available.
6:29 AM 8:34 PM
Waxing Crescent, 28% visible
METAR KFNT 010053Z 04006KT 5SM BR OVC003 07/07 A2984 RMK AO2 SLP111 T00720067
Pressure 29.86 in
Visibility 5.0 miles
Clouds Overcast 300 ft
Windchill 46 °F
Dew Point 43 °F
Humidity 90%
Rainfall 0.65 in
Snow Depth Not available.
6:29 AM 8:34 PM
Waxing Crescent, 28% visible
METAR KFNT 010053Z 04006KT 5SM BR OVC003 07/07 A2984 RMK AO2 SLP111 T00720067

Get Severe Weather Alerts

Thanks for signing up!

Be on the lookout for a verification email in your inbox.

You'll start receiving the daily forecast at 8 AM.

×

10-Day Weather Forecast

Almanac

Astronomy

Apr. 30, 2017 Rise Set
Actual Time
Civil Twilight
Nautical Twilight
Astronomical Twilight
Moon
Length of Visible Light
Length of Day
Tomorrow will be .
, % of the Moon is Illuminated

Today's Extremes

State Highs State Lows

Community

WunderPhotos

WunderBlog® & News

Nearby

Air Quality

  Air Quality AQ Index Pollutant
Not available.

Snow Depth

Station Depth Elevation

Earthquake Activity

City Distance Mag. Time & Date
Minimum magnitude displayed is 2.5.

Coastal Water Temperatures

Place Temperature

Stations

Nearby Weather Stations

Station Location Temp. Windchill Dew Point Humidity Wind Precip. Elev Updated Type
                   

Watches & Warnings

There are currently no watches in effect.